sensor_id;sensor_type;location;lat;lon;timestamp;P1;durP1;ratioP1;P2;durP2;ratioP2
66972;SDS011;53902;51.466;-2.586;2023-03-01T00:01:19;0.93;;;0.65;;
66972;SDS011;53902;51.466;-2.586;2023-03-01T00:03:51;0.43;;;0.43;;
66972;SDS011;53902;51.466;-2.586;2023-03-01T00:06:17;1.13;;;0.88;;
66972;SDS011;53902;51.466;-2.586;2023-03-01T00:08:43;2.92;;;1.58;;
66972;SDS011;53902;51.466;-2.586;2023-03-01T00:11:14;3.40;;;0.88;;
66972;SDS011;53902;51.466;-2.586;2023-03-01T00:13:46;1.33;;;0.77;;
66972;SDS011;53902;51.466;-2.586;2023-03-01T00:16:16;1.15;;;0.77;;
66972;SDS011;53902;51.466;-2.586;2023-03-01T00:18:46;1.38;;;0.60;;
66972;SDS011;53902;51.466;-2.586;2023-03-01T00:21:12;1.10;;;0.55;;
66972;SDS011;53902;51.466;-2.586;2023-03-01T00:23:37;0.85;;;0.40;;
66972;SDS011;53902;51.466;-2.586;2023-03-01T00:26:07;33.78;;;2.05;;
66972;SDS011;53902;51.466;-2.586;2023-03-01T00:28:34;0.45;;;0.40;;
66972;SDS011;53902;51.466;-2.586;2023-03-01T00:31:03;0.30;;;0.30;;
66972;SDS011;53902;51.466;-2.586;2023-03-01T00:33:30;0.30;;;0.30;;
66972;SDS011;53902;51.466;-2.586;2023-03-01T00:35:57;0.55;;;0.20;;
66972;SDS011;53902;51.466;-2.586;2023-03-01T00:38:25;0.63;;;0.63;;
66972;SDS011;53902;51.466;-2.586;2023-03-01T00:40:54;0.65;;;0.43;;
66972;SDS011;53902;51.466;-2.586;2023-03-01T00:43:19;0.40;;;0.40;;
66972;SDS011;53902;51.466;-2.586;2023-03-01T00:45:45;1.27;;;0.55;;
66972;SDS011;53902;51.466;-2.586;2023-03-01T00:48:10;1.55;;;0.60;;
66972;SDS011;53902;51.466;-2.586;2023-03-01T00:50:39;2.60;;;0.32;;
66972;SDS011;53902;51.466;-2.586;2023-03-01T00:53:04;0.45;;;0.45;;
66972;SDS011;53902;51.466;-2.586;2023-03-01T00:55:30;1.55;;;0.40;;
66972;SDS011;53902;51.466;-2.586;2023-03-01T00:57:55;0.90;;;0.60;;
66972;SDS011;53902;51.466;-2.586;2023-03-01T01:00:21;0.85;;;0.50;;
66972;SDS011;53902;51.466;-2.586;2023-03-01T01:02:46;0.85;;;0.70;;
66972;SDS011;53902;51.466;-2.586;2023-03-01T01:05:12;0.52;;;0.50;;
66972;SDS011;53902;51.466;-2.586;2023-03-01T01:07:38;0.82;;;0.50;;
66972;SDS011;53902;51.466;-2.586;2023-03-01T01:10:06;0.63;;;0.40;;
66972;SDS011;53902;51.466;-2.586;2023-03-01T01:12:32;1.25;;;0.50;;
66972;SDS011;53902;51.466;-2.586;2023-03-01T01:14:58;0.32;;;0.32;;
66972;SDS011;53902;51.466;-2.586;2023-03-01T01:17:23;0.90;;;0.40;;
66972;SDS011;53902;51.466;-2.586;2023-03-01T01:19:52;0.40;;;0.40;;
66972;SDS011;53902;51.466;-2.586;2023-03-01T01:22:20;1.77;;;0.50;;
66972;SDS011;53902;51.466;-2.586;2023-03-01T01:24:45;0.88;;;0.70;;
66972;SDS011;53902;51.466;-2.586;2023-03-01T01:27:16;0.25;;;0.25;;
66972;SDS011;53902;51.466;-2.586;2023-03-01T01:29:41;0.82;;;0.50;;
66972;SDS011;53902;51.466;-2.586;2023-03-01T01:32:07;1.33;;;1.20;;
66972;SDS011;53902;51.466;-2.586;2023-03-01T01:34:32;0.45;;;0.40;;
66972;SDS011;53902;51.466;-2.586;2023-03-01T01:37:00;0.60;;;0.40;;
66972;SDS011;53902;51.466;-2.586;2023-03-01T01:39:30;1.48;;;0.55;;
66972;SDS011;53902;51.466;-2.586;2023-03-01T01:41:58;1.65;;;0.50;;
66972;SDS011;53902;51.466;-2.586;2023-03-01T01:44:26;0.82;;;0.57;;
66972;SDS011;53902;51.466;-2.586;2023-03-01T01:47:04;0.93;;;0.65;;
66972;SDS011;53902;51.466;-2.586;2023-03-01T01:49:38;0.68;;;0.68;;
66972;SDS011;53902;51.466;-2.586;2023-03-01T01:57:37;0.45;;;0.43;;
66972;SDS011;53902;51.466;-2.586;2023-03-01T02:02:36;0.28;;;0.28;;
66972;SDS011;53902;51.466;-2.586;2023-03-01T02:05:22;0.25;;;0.25;;
66972;SDS011;53902;51.466;-2.586;2023-03-01T02:07:52;0.30;;;0.30;;
66972;SDS011;53902;51.466;-2.586;2023-03-01T02:10:21;1.45;;;0.40;;
66972;SDS011;53902;51.466;-2.586;2023-03-01T02:12:47;0.35;;;0.28;;
66972;SDS011;53902;51.466;-2.586;2023-03-01T02:15:16;1.48;;;0.60;;
66972;SDS011;53902;51.466;-2.586;2023-03-01T02:17:41;0.73;;;0.40;;
66972;SDS011;53902;51.466;-2.586;2023-03-01T02:22:46;0.50;;;0.50;;
66972;SDS011;53902;51.466;-2.586;2023-03-01T02:30:28;0.80;;;0.57;;
66972;SDS011;53902;51.466;-2.586;2023-03-01T02:32:56;0.45;;;0.43;;
66972;SDS011;53902;51.466;-2.586;2023-03-01T02:35:37;1.10;;;0.85;;
66972;SDS011;53902;51.466;-2.586;2023-03-01T02:38:11;2.10;;;0.63;;
66972;SDS011;53902;51.466;-2.586;2023-03-01T02:40:36;2.17;;;1.10;;
66972;SDS011;53902;51.466;-2.586;2023-03-01T02:43:06;1.98;;;1.27;;
66972;SDS011;53902;51.466;-2.586;2023-03-01T02:45:34;1.38;;;0.80;;
66972;SDS011;53902;51.466;-2.586;2023-03-01T02:47:59;3.17;;;0.80;;
66972;SDS011;53902;51.466;-2.586;2023-03-01T02:56:00;0.57;;;0.40;;
66972;SDS011;53902;51.466;-2.586;2023-03-01T02:58:29;1.00;;;0.50;;
66972;SDS011;53902;51.466;-2.586;2023-03-01T03:00:54;1.13;;;0.80;;
66972;SDS011;53902;51.466;-2.586;2023-03-01T03:03:20;0.77;;;0.77;;
66972;SDS011;53902;51.466;-2.586;2023-03-01T03:05:46;2.83;;;1.07;;
66972;SDS011;53902;51.466;-2.586;2023-03-01T03:08:20;2.30;;;1.35;;
66972;SDS011;53902;51.466;-2.586;2023-03-01T03:10:48;1.10;;;1.00;;
66972;SDS011;53902;51.466;-2.586;2023-03-01T03:13:14;2.35;;;1.00;;
66972;SDS011;53902;51.466;-2.586;2023-03-01T03:15:42;2.85;;;0.90;;
66972;SDS011;53902;51.466;-2.586;2023-03-01T03:18:09;1.98;;;0.70;;
66972;SDS011;53902;51.466;-2.586;2023-03-01T03:20:38;2.25;;;0.80;;
66972;SDS011;53902;51.466;-2.586;2023-03-01T03:23:04;1.52;;;0.70;;
66972;SDS011;53902;51.466;-2.586;2023-03-01T03:25:30;4.90;;;1.42;;
66972;SDS011;53902;51.466;-2.586;2023-03-01T03:28:02;1.00;;;1.00;;
66972;SDS011;53902;51.466;-2.586;2023-03-01T03:30:35;2.47;;;1.05;;
66972;SDS011;53902;51.466;-2.586;2023-03-01T03:33:04;2.13;;;1.27;;
66972;SDS011;53902;51.466;-2.586;2023-03-01T03:35:33;4.68;;;1.10;;
66972;SDS011;53902;51.466;-2.586;2023-03-01T03:38:07;2.47;;;1.10;;
66972;SDS011;53902;51.466;-2.586;2023-03-01T03:40:41;2.65;;;0.90;;
66972;SDS011;53902;51.466;-2.586;2023-03-01T03:43:11;4.65;;;1.75;;
66972;SDS011;53902;51.466;-2.586;2023-03-01T03:45:38;1.73;;;0.95;;
66972;SDS011;53902;51.466;-2.586;2023-03-01T03:48:07;0.90;;;0.82;;
66972;SDS011;53902;51.466;-2.586;2023-03-01T03:50:36;1.98;;;1.13;;
66972;SDS011;53902;51.466;-2.586;2023-03-01T03:53:12;4.10;;;0.90;;
66972;SDS011;53902;51.466;-2.586;2023-03-01T03:55:37;0.95;;;0.85;;
66972;SDS011;53902;51.466;-2.586;2023-03-01T03:58:07;1.67;;;0.65;;
66972;SDS011;53902;51.466;-2.586;2023-03-01T04:00:38;2.53;;;0.68;;
66972;SDS011;53902;51.466;-2.586;2023-03-01T04:03:05;2.47;;;0.60;;
66972;SDS011;53902;51.466;-2.586;2023-03-01T04:05:37;1.95;;;0.60;;
66972;SDS011;53902;51.466;-2.586;2023-03-01T04:08:03;2.83;;;0.68;;
66972;SDS011;53902;51.466;-2.586;2023-03-01T04:10:42;0.68;;;0.50;;
66972;SDS011;53902;51.466;-2.586;2023-03-01T04:13:10;1.38;;;0.70;;
66972;SDS011;53902;51.466;-2.586;2023-03-01T04:15:37;1.95;;;0.63;;
66972;SDS011;53902;51.466;-2.586;2023-03-01T04:18:06;0.65;;;0.50;;
66972;SDS011;53902;51.466;-2.586;2023-03-01T04:20:33;1.85;;;0.80;;
66972;SDS011;53902;51.466;-2.586;2023-03-01T04:28:25;1.48;;;0.90;;
66972;SDS011;53902;51.466;-2.586;2023-03-01T04:31:01;2.78;;;0.90;;
66972;SDS011;53902;51.466;-2.586;2023-03-01T04:33:37;1.67;;;0.75;;
66972;SDS011;53902;51.466;-2.586;2023-03-01T04:36:09;1.10;;;0.88;;
66972;SDS011;53902;51.466;-2.586;2023-03-01T04:38:39;1.95;;;0.65;;
66972;SDS011;53902;51.466;-2.586;2023-03-01T04:41:10;2.13;;;1.40;;
66972;SDS011;53902;51.466;-2.586;2023-03-01T04:43:36;4.00;;;2.70;;
66972;SDS011;53902;51.466;-2.586;2023-03-01T04:46:05;2.15;;;1.02;;
66972;SDS011;53902;51.466;-2.586;2023-03-01T04:48:33;3.42;;;1.40;;
66972;SDS011;53902;51.466;-2.586;2023-03-01T04:51:02;1.95;;;0.88;;
66972;SDS011;53902;51.466;-2.586;2023-03-01T04:53:31;2.08;;;1.20;;
66972;SDS011;53902;51.466;-2.586;2023-03-01T04:55:59;2.55;;;1.05;;
66972;SDS011;53902;51.466;-2.586;2023-03-01T04:58:26;1.20;;;1.10;;
66972;SDS011;53902;51.466;-2.586;2023-03-01T05:00:52;2.25;;;0.90;;
66972;SDS011;53902;51.466;-2.586;2023-03-01T05:03:20;1.95;;;0.90;;
66972;SDS011;53902;51.466;-2.586;2023-03-01T05:05:46;1.08;;;0.98;;
66972;SDS011;53902;51.466;-2.586;2023-03-01T05:08:13;0.80;;;0.80;;
66972;SDS011;53902;51.466;-2.586;2023-03-01T05:10:43;1.63;;;0.80;;
66972;SDS011;53902;51.466;-2.586;2023-03-01T05:13:11;2.00;;;0.98;;
66972;SDS011;53902;51.466;-2.586;2023-03-01T05:15:38;2.58;;;1.08;;
66972;SDS011;53902;51.466;-2.586;2023-03-01T05:18:04;1.33;;;1.10;;
66972;SDS011;53902;51.466;-2.586;2023-03-01T05:20:36;4.10;;;1.35;;
66972;SDS011;53902;51.466;-2.586;2023-03-01T05:23:02;3.03;;;1.30;;
66972;SDS011;53902;51.466;-2.586;2023-03-01T05:25:30;1.98;;;1.20;;
66972;SDS011;53902;51.466;-2.586;2023-03-01T05:27:58;2.38;;;1.30;;
66972;SDS011;53902;51.466;-2.586;2023-03-01T05:30:32;1.63;;;1.25;;
66972;SDS011;53902;51.466;-2.586;2023-03-01T05:33:03;2.03;;;1.30;;
66972;SDS011;53902;51.466;-2.586;2023-03-01T05:35:29;1.55;;;1.40;;
66972;SDS011;53902;51.466;-2.586;2023-03-01T05:38:00;2.40;;;1.60;;
66972;SDS011;53902;51.466;-2.586;2023-03-01T05:40:28;2.60;;;1.75;;
66972;SDS011;53902;51.466;-2.586;2023-03-01T05:42:55;2.85;;;1.70;;
66972;SDS011;53902;51.466;-2.586;2023-03-01T05:47:48;3.92;;;1.63;;
66972;SDS011;53902;51.466;-2.586;2023-03-01T05:50:24;2.25;;;1.50;;
66972;SDS011;53902;51.466;-2.586;2023-03-01T05:55:24;2.38;;;1.73;;
66972;SDS011;53902;51.466;-2.586;2023-03-01T05:57:49;3.92;;;1.73;;
66972;SDS011;53902;51.466;-2.586;2023-03-01T06:00:17;1.92;;;1.60;;
66972;SDS011;53902;51.466;-2.586;2023-03-01T06:02:44;2.80;;;1.60;;
66972;SDS011;53902;51.466;-2.586;2023-03-01T06:05:13;2.85;;;1.85;;
66972;SDS011;53902;51.466;-2.586;2023-03-01T06:07:41;1.70;;;1.58;;
66972;SDS011;53902;51.466;-2.586;2023-03-01T06:10:10;1.63;;;1.52;;
66972;SDS011;53902;51.466;-2.586;2023-03-01T06:12:39;4.00;;;1.75;;
66972;SDS011;53902;51.466;-2.586;2023-03-01T06:15:06;2.47;;;2.20;;
66972;SDS011;53902;51.466;-2.586;2023-03-01T06:17:38;1.83;;;1.52;;
66972;SDS011;53902;51.466;-2.586;2023-03-01T06:20:06;2.28;;;1.77;;
66972;SDS011;53902;51.466;-2.586;2023-03-01T06:22:40;4.78;;;1.90;;
66972;SDS011;53902;51.466;-2.586;2023-03-01T06:25:06;2.10;;;1.90;;
66972;SDS011;53902;51.466;-2.586;2023-03-01T06:27:35;4.03;;;1.98;;
66972;SDS011;53902;51.466;-2.586;2023-03-01T06:30:02;2.95;;;2.22;;
66972;SDS011;53902;51.466;-2.586;2023-03-01T06:32:28;3.40;;;2.33;;
66972;SDS011;53902;51.466;-2.586;2023-03-01T06:34:55;5.70;;;3.33;;
66972;SDS011;53902;51.466;-2.586;2023-03-01T06:37:24;5.40;;;2.72;;
66972;SDS011;53902;51.466;-2.586;2023-03-01T06:39:50;4.50;;;2.92;;
66972;SDS011;53902;51.466;-2.586;2023-03-01T06:42:15;4.70;;;3.17;;
66972;SDS011;53902;51.466;-2.586;2023-03-01T06:44:41;3.97;;;2.58;;
66972;SDS011;53902;51.466;-2.586;2023-03-01T06:47:07;5.30;;;3.03;;
66972;SDS011;53902;51.466;-2.586;2023-03-01T06:49:34;5.28;;;2.63;;
66972;SDS011;53902;51.466;-2.586;2023-03-01T06:52:00;4.82;;;2.30;;
66972;SDS011;53902;51.466;-2.586;2023-03-01T06:54:25;5.22;;;2.40;;
66972;SDS011;53902;51.466;-2.586;2023-03-01T06:56:51;5.72;;;2.28;;
66972;SDS011;53902;51.466;-2.586;2023-03-01T06:59:16;6.75;;;2.75;;
66972;SDS011;53902;51.466;-2.586;2023-03-01T07:01:42;5.13;;;2.50;;
66972;SDS011;53902;51.466;-2.586;2023-03-01T07:04:08;4.25;;;2.55;;
66972;SDS011;53902;51.466;-2.586;2023-03-01T07:06:37;5.55;;;2.30;;
66972;SDS011;53902;51.466;-2.586;2023-03-01T07:09:05;5.00;;;2.30;;
66972;SDS011;53902;51.466;-2.586;2023-03-01T07:11:31;6.60;;;2.40;;
66972;SDS011;53902;51.466;-2.586;2023-03-01T07:13:56;7.07;;;2.45;;
66972;SDS011;53902;51.466;-2.586;2023-03-01T07:16:23;4.00;;;2.33;;
66972;SDS011;53902;51.466;-2.586;2023-03-01T07:18:51;3.70;;;2.55;;
66972;SDS011;53902;51.466;-2.586;2023-03-01T07:21:16;3.65;;;2.47;;
66972;SDS011;53902;51.466;-2.586;2023-03-01T07:23:42;7.10;;;2.08;;
66972;SDS011;53902;51.466;-2.586;2023-03-01T07:26:12;2.95;;;1.95;;
66972;SDS011;53902;51.466;-2.586;2023-03-01T07:28:37;3.45;;;1.90;;
66972;SDS011;53902;51.466;-2.586;2023-03-01T07:31:05;4.90;;;1.95;;
66972;SDS011;53902;51.466;-2.586;2023-03-01T07:33:31;5.35;;;1.80;;
66972;SDS011;53902;51.466;-2.586;2023-03-01T07:38:32;3.13;;;1.63;;
66972;SDS011;53902;51.466;-2.586;2023-03-01T08:01:44;5.40;;;1.80;;
66972;SDS011;53902;51.466;-2.586;2023-03-01T08:06:45;5.45;;;2.28;;
66972;SDS011;53902;51.466;-2.586;2023-03-01T08:09:11;5.15;;;2.17;;
66972;SDS011;53902;51.466;-2.586;2023-03-01T08:11:41;5.00;;;2.08;;
66972;SDS011;53902;51.466;-2.586;2023-03-01T08:14:07;4.18;;;2.15;;
66972;SDS011;53902;51.466;-2.586;2023-03-01T08:16:33;1.75;;;1.30;;
66972;SDS011;53902;51.466;-2.586;2023-03-01T09:16:01;3.53;;;1.90;;
66972;SDS011;53902;51.466;-2.586;2023-03-01T09:18:28;2.33;;;1.60;;
66972;SDS011;53902;51.466;-2.586;2023-03-01T09:21:00;4.10;;;1.80;;
66972;SDS011;53902;51.466;-2.586;2023-03-01T09:23:33;4.28;;;1.85;;
66972;SDS011;53902;51.466;-2.586;2023-03-01T09:26:01;3.58;;;1.70;;
66972;SDS011;53902;51.466;-2.586;2023-03-01T09:28:27;3.47;;;2.00;;
66972;SDS011;53902;51.466;-2.586;2023-03-01T09:30:53;4.43;;;1.70;;
66972;SDS011;53902;51.466;-2.586;2023-03-01T09:33:18;3.22;;;1.90;;
66972;SDS011;53902;51.466;-2.586;2023-03-01T09:35:44;7.70;;;2.35;;
66972;SDS011;53902;51.466;-2.586;2023-03-01T09:38:14;3.85;;;1.90;;
66972;SDS011;53902;51.466;-2.586;2023-03-01T09:40:43;3.08;;;1.70;;
66972;SDS011;53902;51.466;-2.586;2023-03-01T09:45:52;4.18;;;1.90;;
66972;SDS011;53902;51.466;-2.586;2023-03-01T09:48:25;4.35;;;1.65;;
66972;SDS011;53902;51.466;-2.586;2023-03-01T09:50:52;3.58;;;2.10;;
66972;SDS011;53902;51.466;-2.586;2023-03-01T09:53:31;3.47;;;1.77;;
66972;SDS011;53902;51.466;-2.586;2023-03-01T10:04:36;5.05;;;1.45;;
66972;SDS011;53902;51.466;-2.586;2023-03-01T10:09:36;2.63;;;1.50;;
66972;SDS011;53902;51.466;-2.586;2023-03-01T10:12:09;1.55;;;1.25;;
66972;SDS011;53902;51.466;-2.586;2023-03-01T10:14:54;1.48;;;1.30;;
66972;SDS011;53902;51.466;-2.586;2023-03-01T10:22:47;1.40;;;1.10;;
66972;SDS011;53902;51.466;-2.586;2023-03-01T10:28:02;1.75;;;1.13;;
66972;SDS011;53902;51.466;-2.586;2023-03-01T10:30:43;2.25;;;0.95;;
66972;SDS011;53902;51.466;-2.586;2023-03-01T10:33:17;1.42;;;0.90;;
66972;SDS011;53902;51.466;-2.586;2023-03-01T10:35:52;1.10;;;1.00;;
66972;SDS011;53902;51.466;-2.586;2023-03-01T10:38:21;2.58;;;0.98;;
66972;SDS011;53902;51.466;-2.586;2023-03-01T10:40:54;1.10;;;0.77;;
66972;SDS011;53902;51.466;-2.586;2023-03-01T10:43:25;1.30;;;1.20;;
66972;SDS011;53902;51.466;-2.586;2023-03-01T10:45:58;1.30;;;1.00;;
66972;SDS011;53902;51.466;-2.586;2023-03-01T10:48:26;1.02;;;0.93;;
66972;SDS011;53902;51.466;-2.586;2023-03-01T10:53:28;3.10;;;1.00;;
66972;SDS011;53902;51.466;-2.586;2023-03-01T10:58:34;1.70;;;0.80;;
66972;SDS011;53902;51.466;-2.586;2023-03-01T11:03:33;2.03;;;0.95;;
66972;SDS011;53902;51.466;-2.586;2023-03-01T11:06:04;4.22;;;1.17;;
66972;SDS011;53902;51.466;-2.586;2023-03-01T11:13:34;2.05;;;1.30;;
66972;SDS011;53902;51.466;-2.586;2023-03-01T11:16:03;2.47;;;1.70;;
66972;SDS011;53902;51.466;-2.586;2023-03-01T11:18:34;2.17;;;1.30;;
66972;SDS011;53902;51.466;-2.586;2023-03-01T11:21:02;2.78;;;1.23;;
66972;SDS011;53902;51.466;-2.586;2023-03-01T11:23:34;2.70;;;1.63;;
66972;SDS011;53902;51.466;-2.586;2023-03-01T11:26:05;1.90;;;1.30;;
66972;SDS011;53902;51.466;-2.586;2023-03-01T11:28:36;3.35;;;1.45;;
66972;SDS011;53902;51.466;-2.586;2023-03-01T11:31:07;1.85;;;1.38;;
66972;SDS011;53902;51.466;-2.586;2023-03-01T11:36:21;5.00;;;1.48;;
66972;SDS011;53902;51.466;-2.586;2023-03-01T11:38:55;2.47;;;1.17;;
66972;SDS011;53902;51.466;-2.586;2023-03-01T11:41:31;2.83;;;1.45;;
66972;SDS011;53902;51.466;-2.586;2023-03-01T11:51:55;1.90;;;1.40;;
66972;SDS011;53902;51.466;-2.586;2023-03-01T11:57:47;4.00;;;1.30;;
66972;SDS011;53902;51.466;-2.586;2023-03-01T12:08:40;2.63;;;1.00;;
66972;SDS011;53902;51.466;-2.586;2023-03-01T12:11:27;5.63;;;1.13;;
66972;SDS011;53902;51.466;-2.586;2023-03-01T12:22:29;4.47;;;1.80;;
66972;SDS011;53902;51.466;-2.586;2023-03-01T12:28:10;2.65;;;1.52;;
66972;SDS011;53902;51.466;-2.586;2023-03-01T12:53:23;2.97;;;2.10;;
66972;SDS011;53902;51.466;-2.586;2023-03-01T12:55:53;3.20;;;2.10;;
66972;SDS011;53902;51.466;-2.586;2023-03-01T13:03:53;5.05;;;2.55;;
66972;SDS011;53902;51.466;-2.586;2023-03-01T13:06:55;4.70;;;3.03;;
66972;SDS011;53902;51.466;-2.586;2023-03-01T13:20:15;8.85;;;4.22;;
66972;SDS011;53902;51.466;-2.586;2023-03-01T13:22:46;5.25;;;2.83;;
66972;SDS011;53902;51.466;-2.586;2023-03-01T13:27:45;6.00;;;3.15;;
66972;SDS011;53902;51.466;-2.586;2023-03-01T13:30:37;5.13;;;3.08;;
66972;SDS011;53902;51.466;-2.586;2023-03-01T13:35:48;4.65;;;2.28;;
66972;SDS011;53902;51.466;-2.586;2023-03-01T13:41:02;5.53;;;2.42;;
66972;SDS011;53902;51.466;-2.586;2023-03-01T13:43:32;3.55;;;2.20;;
66972;SDS011;53902;51.466;-2.586;2023-03-01T13:46:14;3.67;;;2.30;;
66972;SDS011;53902;51.466;-2.586;2023-03-01T13:48:50;4.28;;;2.20;;
66972;SDS011;53902;51.466;-2.586;2023-03-01T13:51:20;3.40;;;2.33;;
66972;SDS011;53902;51.466;-2.586;2023-03-01T13:53:50;2.85;;;2.33;;
66972;SDS011;53902;51.466;-2.586;2023-03-01T13:56:20;5.28;;;2.45;;
66972;SDS011;53902;51.466;-2.586;2023-03-01T13:58:51;3.60;;;2.28;;
66972;SDS011;53902;51.466;-2.586;2023-03-01T14:01:29;5.35;;;2.28;;
66972;SDS011;53902;51.466;-2.586;2023-03-01T14:04:02;3.95;;;1.92;;
66972;SDS011;53902;51.466;-2.586;2023-03-01T14:06:32;4.82;;;1.92;;
66972;SDS011;53902;51.466;-2.586;2023-03-01T14:09:19;2.20;;;1.70;;
66972;SDS011;53902;51.466;-2.586;2023-03-01T14:14:54;2.55;;;1.77;;
66972;SDS011;53902;51.466;-2.586;2023-03-01T14:17:51;4.93;;;1.80;;
66972;SDS011;53902;51.466;-2.586;2023-03-01T14:20:38;3.15;;;1.50;;
66972;SDS011;53902;51.466;-2.586;2023-03-01T14:23:20;3.25;;;1.90;;
66972;SDS011;53902;51.466;-2.586;2023-03-01T14:55:00;7.50;;;2.90;;
66972;SDS011;53902;51.466;-2.586;2023-03-01T16:02:53;2.67;;;1.60;;
66972;SDS011;53902;51.466;-2.586;2023-03-01T16:08:02;4.25;;;2.10;;
66972;SDS011;53902;51.466;-2.586;2023-03-01T16:10:28;2.65;;;1.95;;
66972;SDS011;53902;51.466;-2.586;2023-03-01T16:12:54;4.05;;;2.00;;
66972;SDS011;53902;51.466;-2.586;2023-03-01T16:15:24;4.93;;;2.10;;
66972;SDS011;53902;51.466;-2.586;2023-03-01T16:17:52;6.13;;;2.70;;
66972;SDS011;53902;51.466;-2.586;2023-03-01T16:20:18;6.00;;;3.20;;
66972;SDS011;53902;51.466;-2.586;2023-03-01T16:22:44;4.93;;;2.45;;
66972;SDS011;53902;51.466;-2.586;2023-03-01T16:25:16;4.30;;;2.37;;
66972;SDS011;53902;51.466;-2.586;2023-03-01T16:27:46;4.00;;;2.47;;
66972;SDS011;53902;51.466;-2.586;2023-03-01T16:30:18;3.88;;;2.63;;
66972;SDS011;53902;51.466;-2.586;2023-03-01T16:32:45;9.07;;;4.10;;
66972;SDS011;53902;51.466;-2.586;2023-03-01T16:35:20;3.85;;;2.60;;
66972;SDS011;53902;51.466;-2.586;2023-03-01T16:37:48;5.70;;;2.78;;
66972;SDS011;53902;51.466;-2.586;2023-03-01T16:42:47;7.20;;;3.22;;
66972;SDS011;53902;51.466;-2.586;2023-03-01T16:45:14;8.93;;;3.83;;
66972;SDS011;53902;51.466;-2.586;2023-03-01T16:47:40;4.22;;;2.92;;
66972;SDS011;53902;51.466;-2.586;2023-03-01T16:50:10;6.38;;;3.60;;
66972;SDS011;53902;51.466;-2.586;2023-03-01T16:52:35;4.78;;;2.47;;
66972;SDS011;53902;51.466;-2.586;2023-03-01T16:55:05;6.85;;;3.10;;
66972;SDS011;53902;51.466;-2.586;2023-03-01T16:57:34;5.72;;;3.50;;
66972;SDS011;53902;51.466;-2.586;2023-03-01T17:00:01;5.30;;;3.30;;
66972;SDS011;53902;51.466;-2.586;2023-03-01T17:02:29;4.63;;;3.20;;
66972;SDS011;53902;51.466;-2.586;2023-03-01T17:04:54;9.18;;;3.55;;
66972;SDS011;53902;51.466;-2.586;2023-03-01T17:07:21;7.05;;;3.88;;
66972;SDS011;53902;51.466;-2.586;2023-03-01T17:09:54;7.63;;;3.75;;
66972;SDS011;53902;51.466;-2.586;2023-03-01T17:12:22;7.93;;;3.90;;
66972;SDS011;53902;51.466;-2.586;2023-03-01T17:14:47;9.20;;;3.60;;
66972;SDS011;53902;51.466;-2.586;2023-03-01T17:17:13;8.05;;;4.35;;
66972;SDS011;53902;51.466;-2.586;2023-03-01T17:19:41;6.63;;;4.20;;
66972;SDS011;53902;51.466;-2.586;2023-03-01T17:22:10;6.25;;;3.72;;
66972;SDS011;53902;51.466;-2.586;2023-03-01T17:24:37;6.57;;;3.67;;
66972;SDS011;53902;51.466;-2.586;2023-03-01T17:27:08;7.30;;;4.10;;
66972;SDS011;53902;51.466;-2.586;2023-03-01T17:29:34;14.18;;;6.57;;
66972;SDS011;53902;51.466;-2.586;2023-03-01T17:31:59;7.03;;;4.60;;
66972;SDS011;53902;51.466;-2.586;2023-03-01T17:34:33;8.23;;;3.83;;
66972;SDS011;53902;51.466;-2.586;2023-03-01T17:37:01;6.85;;;4.53;;
66972;SDS011;53902;51.466;-2.586;2023-03-01T17:39:27;7.75;;;3.95;;
66972;SDS011;53902;51.466;-2.586;2023-03-01T17:42:00;11.98;;;6.45;;
66972;SDS011;53902;51.466;-2.586;2023-03-01T17:44:26;13.70;;;6.47;;
66972;SDS011;53902;51.466;-2.586;2023-03-01T17:46:51;7.40;;;4.30;;
66972;SDS011;53902;51.466;-2.586;2023-03-01T17:49:17;7.60;;;4.63;;
66972;SDS011;53902;51.466;-2.586;2023-03-01T17:51:42;6.68;;;4.35;;
66972;SDS011;53902;51.466;-2.586;2023-03-01T17:54:11;9.82;;;5.00;;
66972;SDS011;53902;51.466;-2.586;2023-03-01T17:56:36;8.93;;;5.50;;
66972;SDS011;53902;51.466;-2.586;2023-03-01T17:59:06;8.27;;;5.00;;
66972;SDS011;53902;51.466;-2.586;2023-03-01T18:01:31;6.65;;;4.80;;
66972;SDS011;53902;51.466;-2.586;2023-03-01T18:04:01;6.32;;;4.18;;
66972;SDS011;53902;51.466;-2.586;2023-03-01T18:06:29;7.90;;;4.72;;
66972;SDS011;53902;51.466;-2.586;2023-03-01T18:08:56;7.30;;;4.10;;
66972;SDS011;53902;51.466;-2.586;2023-03-01T18:19:02;6.93;;;3.65;;
66972;SDS011;53902;51.466;-2.586;2023-03-01T18:21:28;4.40;;;3.65;;
66972;SDS011;53902;51.466;-2.586;2023-03-01T18:23:54;7.55;;;3.10;;
66972;SDS011;53902;51.466;-2.586;2023-03-01T18:26:21;6.80;;;4.03;;
66972;SDS011;53902;51.466;-2.586;2023-03-01T18:28:49;8.55;;;4.20;;
66972;SDS011;53902;51.466;-2.586;2023-03-01T18:31:16;8.48;;;5.28;;
66972;SDS011;53902;51.466;-2.586;2023-03-01T18:33:42;16.88;;;7.93;;
66972;SDS011;53902;51.466;-2.586;2023-03-01T18:36:24;12.80;;;6.78;;
66972;SDS011;53902;51.466;-2.586;2023-03-01T19:04:48;16.20;;;9.13;;
66972;SDS011;53902;51.466;-2.586;2023-03-01T19:07:15;14.50;;;7.43;;
66972;SDS011;53902;51.466;-2.586;2023-03-01T19:09:41;13.40;;;6.10;;
66972;SDS011;53902;51.466;-2.586;2023-03-01T19:12:07;11.45;;;6.78;;
66972;SDS011;53902;51.466;-2.586;2023-03-01T19:14:33;11.70;;;5.38;;
66972;SDS011;53902;51.466;-2.586;2023-03-01T19:17:01;11.70;;;4.65;;
66972;SDS011;53902;51.466;-2.586;2023-03-01T19:19:29;6.50;;;4.40;;
66972;SDS011;53902;51.466;-2.586;2023-03-01T19:22:01;7.18;;;3.92;;
66972;SDS011;53902;51.466;-2.586;2023-03-01T19:24:27;7.30;;;3.65;;
66972;SDS011;53902;51.466;-2.586;2023-03-01T19:27:00;7.15;;;3.60;;
66972;SDS011;53902;51.466;-2.586;2023-03-01T19:29:26;10.00;;;4.70;;
66972;SDS011;53902;51.466;-2.586;2023-03-01T19:31:51;4.70;;;3.38;;
66972;SDS011;53902;51.466;-2.586;2023-03-01T19:34:17;7.72;;;2.97;;
66972;SDS011;53902;51.466;-2.586;2023-03-01T19:36:44;6.90;;;3.15;;
66972;SDS011;53902;51.466;-2.586;2023-03-01T19:39:11;8.23;;;3.75;;
66972;SDS011;53902;51.466;-2.586;2023-03-01T19:41:37;4.55;;;3.50;;
66972;SDS011;53902;51.466;-2.586;2023-03-01T19:44:03;7.85;;;3.75;;
66972;SDS011;53902;51.466;-2.586;2023-03-01T19:46:30;11.20;;;5.05;;
66972;SDS011;53902;51.466;-2.586;2023-03-01T19:48:57;15.38;;;7.53;;
66972;SDS011;53902;51.466;-2.586;2023-03-01T19:53:59;10.70;;;5.93;;
66972;SDS011;53902;51.466;-2.586;2023-03-01T19:56:24;9.43;;;3.03;;
66972;SDS011;53902;51.466;-2.586;2023-03-01T19:58:53;8.35;;;4.60;;
66972;SDS011;53902;51.466;-2.586;2023-03-01T20:01:24;6.30;;;3.25;;
66972;SDS011;53902;51.466;-2.586;2023-03-01T20:03:52;8.63;;;4.43;;
66972;SDS011;53902;51.466;-2.586;2023-03-01T20:06:18;8.13;;;4.05;;
66972;SDS011;53902;51.466;-2.586;2023-03-01T20:16:26;6.30;;;3.08;;
66972;SDS011;53902;51.466;-2.586;2023-03-01T21:17:32;5.55;;;2.85;;
66972;SDS011;53902;51.466;-2.586;2023-03-01T21:22:35;8.77;;;3.65;;
66972;SDS011;53902;51.466;-2.586;2023-03-01T21:53:28;9.73;;;5.10;;
66972;SDS011;53902;51.466;-2.586;2023-03-01T22:04:03;6.28;;;3.47;;
66972;SDS011;53902;51.466;-2.586;2023-03-01T22:09:15;9.00;;;3.85;;
66972;SDS011;53902;51.466;-2.586;2023-03-01T22:14:36;6.68;;;3.78;;
66972;SDS011;53902;51.466;-2.586;2023-03-01T22:17:04;8.30;;;3.60;;
66972;SDS011;53902;51.466;-2.586;2023-03-01T22:19:32;6.45;;;3.58;;
66972;SDS011;53902;51.466;-2.586;2023-03-01T22:22:01;6.53;;;3.60;;
66972;SDS011;53902;51.466;-2.586;2023-03-01T22:24:30;11.23;;;3.97;;
66972;SDS011;53902;51.466;-2.586;2023-03-01T22:27:01;8.93;;;3.85;;
66972;SDS011;53902;51.466;-2.586;2023-03-01T22:29:27;9.10;;;3.83;;
66972;SDS011;53902;51.466;-2.586;2023-03-01T22:31:53;13.90;;;4.38;;
66972;SDS011;53902;51.466;-2.586;2023-03-01T22:34:22;10.98;;;4.32;;
66972;SDS011;53902;51.466;-2.586;2023-03-01T22:36:55;9.55;;;3.60;;
66972;SDS011;53902;51.466;-2.586;2023-03-01T22:39:28;6.88;;;3.55;;
66972;SDS011;53902;51.466;-2.586;2023-03-01T22:41:53;8.15;;;3.63;;
66972;SDS011;53902;51.466;-2.586;2023-03-01T22:44:20;8.60;;;3.97;;